createdAt,value
2018-06-21T00:01:11.898Z,22.50
2018-06-21T00:03:40.404Z,22.50
2018-06-21T00:06:08.849Z,22.50
2018-06-21T00:08:37.333Z,22.60
2018-06-21T00:11:05.889Z,22.60
2018-06-21T00:13:34.325Z,22.60
2018-06-21T00:16:02.913Z,22.60
2018-06-21T00:18:31.414Z,22.60
2018-06-21T00:20:59.822Z,22.60
2018-06-21T00:23:28.317Z,22.60
2018-06-21T00:25:56.785Z,22.50
2018-06-21T00:28:25.231Z,22.50
2018-06-21T00:30:53.705Z,22.40
2018-06-21T00:33:22.158Z,22.40
2018-06-21T00:38:18.769Z,22.30
2018-06-21T00:40:47.230Z,22.30
2018-06-21T00:43:16.533Z,22.20
2018-06-21T00:45:44.989Z,22.20
2018-06-21T00:48:13.433Z,22.10
2018-06-21T00:50:41.880Z,22.10
2018-06-21T00:53:10.325Z,22.10
2018-06-21T00:55:50.025Z,22.10
2018-06-21T00:58:18.493Z,22.10
2018-06-21T01:00:46.941Z,22.00
2018-06-21T01:03:15.388Z,22.00
2018-06-21T01:05:43.861Z,21.90
2018-06-21T01:08:12.305Z,21.90
2018-06-21T01:10:40.779Z,21.80
2018-06-21T01:13:09.241Z,21.80
2018-06-21T01:15:37.709Z,21.80
2018-06-21T01:18:06.169Z,21.80
2018-06-21T01:22:54.050Z,21.70
2018-06-21T01:27:50.637Z,21.60
2018-06-21T01:30:19.095Z,21.60
2018-06-21T01:32:47.620Z,21.50
2018-06-21T01:35:16.097Z,21.50
2018-06-21T01:37:44.544Z,21.50
2018-06-21T01:40:13.004Z,21.50
2018-06-21T01:42:41.473Z,21.50
2018-06-21T01:45:09.981Z,21.50
2018-06-21T01:47:38.453Z,21.40
2018-06-21T01:50:06.918Z,21.40
2018-06-21T01:52:35.377Z,21.30
2018-06-21T01:55:03.861Z,21.30
2018-06-21T01:57:32.305Z,21.30
2018-06-21T02:00:00.774Z,21.30
2018-06-21T02:02:29.305Z,21.20
2018-06-21T02:04:57.777Z,21.20
2018-06-21T02:07:26.225Z,21.20
2018-06-21T02:09:54.677Z,21.10
2018-06-21T02:14:51.328Z,21.00
2018-06-21T02:17:19.845Z,20.90
2018-06-21T02:19:48.353Z,20.90
2018-06-21T02:22:16.817Z,20.90
2018-06-21T02:24:45.285Z,20.80
2018-06-21T02:27:13.820Z,20.80
2018-06-21T02:29:42.297Z,20.80
2018-06-21T02:32:11.104Z,20.70
2018-06-21T02:34:39.590Z,20.70
2018-06-21T02:39:36.204Z,20.70
2018-06-21T02:42:04.725Z,20.70
2018-06-21T02:44:33.238Z,20.70
2018-06-21T02:47:01.721Z,20.70
2018-06-21T02:49:30.193Z,20.70
2018-06-21T02:51:58.648Z,20.60
2018-06-21T02:54:27.118Z,20.60
2018-06-21T02:56:55.594Z,20.60
2018-06-21T02:59:24.037Z,20.50
2018-06-21T03:01:52.503Z,20.50
2018-06-21T03:04:20.952Z,20.40
2018-06-21T03:06:49.417Z,20.40
2018-06-21T03:09:17.889Z,20.40
2018-06-21T03:11:46.342Z,20.50
2018-06-21T03:14:14.829Z,20.50
2018-06-21T03:16:43.279Z,20.40
2018-06-21T03:19:11.763Z,20.40
2018-06-21T03:21:40.337Z,20.30
2018-06-21T03:24:08.789Z,20.30
2018-06-21T03:26:37.254Z,20.30
2018-06-21T03:29:06.058Z,20.30
2018-06-21T03:31:34.921Z,20.30
2018-06-21T03:34:03.364Z,20.30
2018-06-21T03:36:31.800Z,20.30
2018-06-21T03:39:00.317Z,20.30
2018-06-21T03:41:28.757Z,20.30
2018-06-21T03:43:57.316Z,20.30
2018-06-21T03:46:25.766Z,20.30
2018-06-21T03:48:54.235Z,20.30
2018-06-21T03:51:22.708Z,20.30
2018-06-21T03:53:51.157Z,20.30
2018-06-21T03:56:19.723Z,20.30
2018-06-21T03:58:48.192Z,20.30
2018-06-21T04:01:16.705Z,20.40
2018-06-21T04:03:45.305Z,20.50
2018-06-21T04:06:13.772Z,20.60
2018-06-21T04:08:42.261Z,20.70
2018-06-21T04:11:10.713Z,20.70
2018-06-21T04:13:39.197Z,20.70
2018-06-21T04:16:07.657Z,20.70
2018-06-21T04:18:37.117Z,20.80
2018-06-21T04:21:07.161Z,20.80
2018-06-21T04:23:35.605Z,20.90
2018-06-21T04:26:04.188Z,20.90
2018-06-21T04:28:32.665Z,20.90
2018-06-21T04:31:01.470Z,21.00
2018-06-21T04:33:30.161Z,21.10
2018-06-21T04:38:26.747Z,21.20
2018-06-21T04:40:55.434Z,21.30
2018-06-21T04:43:23.897Z,21.40
2018-06-21T04:45:52.465Z,21.40
2018-06-21T04:50:48.998Z,21.50
2018-06-21T04:53:17.456Z,21.50
2018-06-21T04:55:45.896Z,21.60
2018-06-21T04:58:14.348Z,21.70
2018-06-21T05:00:42.910Z,21.70
2018-06-21T05:03:11.368Z,21.80
2018-06-21T05:05:39.865Z,21.80
2018-06-21T05:08:08.329Z,21.90
2018-06-21T05:10:36.784Z,21.90
2018-06-21T05:13:05.284Z,22.00
2018-06-21T05:15:33.740Z,22.10
2018-06-21T05:20:30.385Z,22.20
2018-06-21T05:22:58.841Z,22.30
2018-06-21T05:25:27.289Z,22.40
2018-06-21T05:27:55.759Z,22.40
2018-06-21T05:30:24.233Z,22.40
2018-06-21T05:32:52.686Z,22.50
2018-06-21T05:35:21.166Z,22.60
2018-06-21T05:40:31.893Z,22.60
2018-06-21T05:43:01.456Z,22.70
2018-06-21T05:47:59.865Z,22.80
2018-06-21T05:50:29.053Z,22.90
2018-06-21T05:52:58.442Z,22.90
2018-06-21T05:55:27.434Z,23.00
2018-06-21T05:57:55.893Z,23.10
2018-06-21T06:00:24.381Z,23.20
2018-06-21T06:02:52.890Z,23.30
2018-06-21T06:05:21.681Z,23.30
2018-06-21T06:07:50.378Z,23.40
2018-06-21T06:10:18.872Z,23.50
2018-06-21T06:12:47.354Z,23.50
2018-06-21T06:15:15.798Z,23.60
2018-06-21T06:17:44.278Z,23.70
2018-06-21T06:20:12.749Z,23.70
2018-06-21T06:22:41.226Z,23.90
2018-06-21T06:25:09.704Z,24.00
2018-06-21T06:27:38.169Z,24.00
2018-06-21T06:30:07.721Z,24.10
2018-06-21T06:35:04.433Z,24.20
2018-06-21T06:37:33.052Z,24.20
2018-06-21T06:40:01.553Z,24.30
2018-06-21T06:42:30.220Z,24.40
2018-06-21T06:46:01.913Z,24.40
2018-06-21T06:48:30.411Z,24.50
2018-06-21T06:50:58.902Z,24.60
2018-06-21T06:53:27.397Z,24.70
2018-06-21T06:55:55.837Z,24.80
2018-06-21T06:58:24.300Z,24.90
2018-06-21T07:00:52.921Z,25.00
2018-06-21T07:03:21.657Z,25.10
2018-06-21T07:05:50.126Z,25.20
2018-06-21T07:08:20.668Z,25.30
2018-06-21T07:10:49.222Z,25.40
2018-06-21T07:13:17.693Z,25.50
2018-06-21T07:15:46.188Z,25.50
2018-06-21T07:18:14.701Z,25.60
2018-06-21T07:20:43.207Z,25.70
2018-06-21T07:23:11.713Z,25.80
2018-06-21T07:25:40.227Z,25.80
2018-06-21T07:28:08.681Z,25.90
2018-06-21T07:30:37.433Z,25.90
2018-06-21T07:33:05.930Z,26.00
2018-06-21T07:35:34.422Z,26.10
2018-06-21T07:38:02.885Z,26.20
2018-06-21T07:40:31.373Z,26.30
2018-06-21T07:42:59.885Z,26.40
2018-06-21T07:45:28.389Z,26.50
2018-06-21T07:47:56.865Z,26.60
2018-06-21T07:50:25.334Z,26.70
2018-06-21T07:52:53.813Z,26.70
2018-06-21T08:02:10.134Z,26.90
2018-06-21T08:04:38.793Z,27.10
2018-06-21T08:07:07.257Z,27.10
2018-06-21T08:09:35.749Z,27.30
2018-06-21T08:12:04.245Z,27.30
2018-06-21T08:17:00.881Z,27.40
2018-06-21T08:19:29.762Z,27.50
2018-06-21T08:21:58.257Z,27.60
2018-06-21T08:24:27.034Z,27.70
2018-06-21T08:26:55.618Z,27.80
2018-06-21T08:29:23.965Z,27.80
2018-06-21T08:31:52.408Z,28.00
2018-06-21T08:34:20.910Z,28.00
2018-06-21T08:36:49.373Z,28.10
2018-06-21T08:39:17.809Z,28.10
2018-06-21T08:41:46.274Z,28.20
2018-06-21T08:44:14.796Z,28.30
2018-06-21T08:49:11.485Z,28.40
2018-06-21T08:51:40.022Z,28.40
2018-06-21T08:54:08.505Z,28.50
2018-06-21T08:56:36.973Z,28.50
2018-06-21T08:59:05.511Z,28.60
2018-06-21T09:01:33.974Z,28.70
2018-06-21T09:04:02.437Z,28.80
2018-06-21T09:06:30.913Z,28.80
2018-06-21T09:08:59.549Z,28.90
2018-06-21T09:11:28.025Z,28.90
2018-06-21T09:13:56.501Z,28.90
2018-06-21T09:16:25.201Z,29.00
2018-06-21T09:18:53.657Z,29.00
2018-06-21T09:21:22.105Z,29.10
2018-06-21T09:23:50.549Z,29.20
2018-06-21T09:26:18.990Z,29.30
2018-06-21T09:28:47.445Z,29.30
2018-06-21T09:31:15.897Z,29.40
2018-06-21T09:33:44.356Z,29.50
2018-06-21T09:36:12.881Z,29.50
2018-06-21T09:38:46.573Z,29.50
2018-06-21T09:41:20.342Z,29.60
2018-06-21T09:44:03.830Z,29.70
2018-06-21T09:46:33.875Z,29.80
2018-06-21T09:48:56.381Z,29.80
2018-06-21T09:51:24.823Z,29.90
2018-06-21T09:53:53.277Z,30.00
2018-06-21T09:56:21.739Z,30.00
2018-06-21T09:58:50.205Z,30.00
2018-06-21T10:01:18.648Z,29.90
2018-06-21T10:03:47.077Z,30.00
2018-06-21T10:06:15.566Z,30.10
2018-06-21T10:08:44.009Z,30.10
2018-06-21T10:11:12.450Z,30.10
2018-06-21T10:13:40.889Z,30.20
2018-06-21T10:16:09.346Z,30.30
2018-06-21T10:18:37.811Z,30.30
2018-06-21T10:21:06.254Z,30.40
2018-06-21T10:23:34.752Z,30.60
2018-06-21T10:26:03.211Z,30.60
2018-06-21T10:28:31.693Z,30.70
2018-06-21T10:31:00.141Z,30.70
2018-06-21T10:33:28.587Z,30.80
2018-06-21T10:35:57.067Z,30.80
2018-06-21T10:38:25.516Z,30.90
2018-06-21T10:40:53.966Z,30.90
2018-06-21T10:43:22.465Z,31.00
2018-06-21T10:48:19.070Z,31.00
2018-06-21T10:50:47.609Z,31.10
2018-06-21T10:55:44.473Z,31.20
2018-06-21T10:58:12.965Z,31.30
2018-06-21T11:00:41.429Z,31.40
2018-06-21T11:03:09.920Z,31.40
2018-06-21T11:05:38.369Z,31.40
2018-06-21T11:08:06.841Z,31.70
2018-06-21T11:10:35.297Z,31.80
2018-06-21T11:13:03.817Z,32.00
2018-06-21T11:15:32.261Z,32.10
2018-06-21T11:18:00.734Z,32.20
2018-06-21T11:20:29.193Z,32.40
2018-06-21T11:22:57.692Z,32.40
2018-06-21T11:25:26.140Z,32.40
2018-06-21T11:30:22.738Z,32.40
2018-06-21T11:32:51.234Z,32.30
2018-06-21T11:35:19.669Z,32.50
2018-06-21T11:37:48.124Z,32.50
2018-06-21T11:40:16.566Z,32.50
2018-06-21T11:42:45.030Z,32.50
2018-06-21T11:45:14.465Z,32.60
2018-06-21T11:47:42.908Z,32.70
2018-06-21T11:50:11.385Z,32.90
2018-06-21T11:59:27.685Z,33.20
2018-06-21T12:01:56.134Z,33.40
2018-06-21T12:04:25.070Z,33.30
2018-06-21T12:06:53.516Z,33.40
2018-06-21T12:09:22.042Z,33.30
2018-06-21T12:11:50.645Z,33.40
2018-06-21T12:14:19.079Z,33.50
2018-06-21T12:16:47.541Z,33.80
2018-06-21T12:19:16.177Z,33.80
2018-06-21T12:24:12.825Z,34.00
2018-06-21T12:26:41.301Z,34.10
2018-06-21T12:29:09.896Z,34.00
2018-06-21T12:31:38.452Z,34.00
2018-06-21T12:34:07.021Z,33.90
2018-06-21T12:36:35.549Z,34.20
2018-06-21T12:39:06.238Z,34.30
2018-06-21T12:41:34.737Z,34.30
2018-06-21T12:44:03.307Z,34.50
2018-06-21T12:46:31.830Z,34.50
2018-06-21T12:49:00.305Z,34.50
2018-06-21T12:53:57.121Z,34.70
2018-06-21T12:56:25.928Z,34.70
2018-06-21T12:58:54.469Z,34.90
2018-06-21T13:01:22.969Z,35.10
2018-06-21T13:03:51.461Z,35.30
2018-06-21T13:06:19.964Z,35.10
2018-06-21T13:08:59.655Z,35.10
2018-06-21T13:12:47.660Z,35.20
2018-06-21T13:15:16.129Z,35.30
2018-06-21T13:17:44.633Z,35.60
2018-06-21T13:20:13.078Z,35.70
2018-06-21T13:22:41.597Z,35.70
2018-06-21T13:25:10.050Z,35.60
2018-06-21T13:27:38.501Z,35.70
2018-06-21T13:30:08.618Z,35.80
2018-06-21T13:32:37.229Z,36.00
2018-06-21T13:35:06.492Z,36.10
2018-06-21T13:37:35.033Z,36.10
2018-06-21T13:40:03.578Z,36.10
2018-06-21T13:42:32.032Z,36.30
2018-06-21T13:45:00.501Z,36.30
2018-06-21T13:49:57.114Z,36.30
2018-06-21T13:52:25.617Z,36.60
2018-06-21T13:57:22.272Z,36.90
2018-06-21T14:02:18.886Z,36.90
2018-06-21T14:04:47.338Z,37.00
2018-06-21T14:07:15.784Z,37.30
2018-06-21T14:12:12.443Z,37.40
2018-06-21T14:17:09.104Z,37.50
2018-06-21T14:19:37.618Z,37.60
2018-06-21T14:22:06.070Z,37.40
2018-06-21T14:24:34.533Z,37.50
2018-06-21T14:27:03.005Z,37.60
2018-06-21T14:29:31.462Z,37.60
2018-06-21T14:31:59.939Z,37.70
2018-06-21T14:34:28.394Z,37.80
2018-06-21T14:36:56.842Z,37.90
2018-06-21T14:41:53.492Z,38.00
2018-06-21T14:44:21.945Z,37.90
2018-06-21T14:46:50.391Z,38.20
2018-06-21T14:49:18.828Z,38.40
2018-06-21T14:51:47.329Z,38.40
2018-06-21T14:54:15.825Z,38.40
2018-06-21T14:56:44.277Z,38.50
2018-06-21T14:59:12.743Z,38.40
2018-06-21T15:01:41.221Z,38.20
2018-06-21T15:04:09.690Z,38.30
2018-06-21T15:06:38.143Z,38.60
2018-06-21T15:09:09.046Z,38.90
2018-06-21T15:11:37.577Z,38.50
2018-06-21T15:14:06.303Z,38.10
2018-06-21T15:16:34.768Z,38.30
2018-06-21T15:19:03.201Z,38.40
2018-06-21T15:21:31.800Z,38.70
2018-06-21T15:24:00.261Z,38.80
2018-06-21T15:26:28.709Z,38.90
2018-06-21T15:28:57.194Z,39.10
2018-06-21T15:31:25.644Z,39.10
2018-06-21T15:33:54.157Z,38.90
2018-06-21T15:36:22.642Z,38.80
2018-06-21T15:38:51.082Z,38.70
2018-06-21T15:41:19.537Z,38.70
2018-06-21T15:43:48.094Z,38.70
2018-06-21T15:46:16.558Z,38.80
2018-06-21T15:48:45.337Z,38.50
2018-06-21T15:51:13.852Z,38.40
2018-06-21T15:53:42.305Z,38.40
2018-06-21T16:01:07.102Z,37.30
2018-06-21T16:03:35.586Z,37.10
2018-06-21T16:06:04.065Z,37.10
2018-06-21T16:08:32.509Z,36.90
2018-06-21T16:13:29.134Z,35.80
2018-06-21T16:15:57.590Z,35.50
2018-06-21T16:18:26.038Z,35.30
2018-06-21T16:20:54.465Z,35.10
2018-06-21T16:23:22.916Z,35.00
2018-06-21T16:25:51.380Z,34.90
2018-06-21T16:28:19.855Z,34.70
2018-06-21T16:30:48.333Z,34.60
2018-06-21T16:35:44.958Z,34.40
2018-06-21T16:38:13.412Z,34.30
2018-06-21T16:40:41.853Z,34.10
2018-06-21T16:43:10.323Z,34.00
2018-06-21T16:48:06.937Z,33.80
2018-06-21T16:50:35.384Z,33.80
2018-06-21T16:53:03.823Z,33.90
2018-06-21T16:58:00.453Z,33.90
2018-06-21T17:00:28.914Z,33.90
2018-06-21T17:02:57.409Z,33.90
2018-06-21T17:05:25.859Z,33.80
2018-06-21T17:07:54.293Z,33.70
2018-06-21T17:10:22.775Z,33.60
2018-06-21T17:12:51.177Z,33.40
2018-06-21T17:15:19.597Z,33.30
2018-06-21T17:17:48.065Z,33.10
2018-06-21T17:20:16.583Z,32.90
2018-06-21T17:22:45.023Z,32.60
2018-06-21T17:25:13.483Z,32.40
2018-06-21T17:27:41.914Z,32.20
2018-06-21T17:30:10.357Z,32.10
2018-06-21T17:32:38.825Z,31.90
2018-06-21T17:35:07.329Z,31.70
2018-06-21T17:37:35.801Z,31.50
2018-06-21T17:40:04.302Z,31.40
2018-06-21T17:42:32.728Z,31.30
2018-06-21T17:45:01.194Z,31.30
2018-06-21T17:47:29.946Z,31.20
2018-06-21T17:49:58.525Z,31.10
2018-06-21T17:52:27.143Z,31.20
2018-06-21T17:54:55.615Z,31.30
2018-06-21T17:57:24.066Z,31.20
2018-06-21T17:59:52.502Z,31.20
2018-06-21T18:02:20.971Z,31.10
2018-06-21T18:04:49.446Z,31.10
2018-06-21T18:07:18.164Z,31.10
2018-06-21T18:09:46.608Z,31.00
2018-06-21T18:12:15.117Z,30.90
2018-06-21T18:14:43.565Z,30.80
2018-06-21T18:17:12.013Z,30.70
2018-06-21T18:19:40.651Z,30.70
2018-06-21T18:22:09.066Z,30.60
2018-06-21T18:24:37.584Z,30.50
2018-06-21T18:27:06.057Z,30.40
2018-06-21T18:29:34.542Z,30.30
2018-06-21T18:32:03.099Z,30.20
2018-06-21T18:34:31.573Z,30.10
2018-06-21T18:37:00.014Z,30.00
2018-06-21T18:39:28.506Z,29.90
2018-06-21T18:41:57.001Z,29.90
2018-06-21T18:46:53.753Z,29.80
2018-06-21T18:49:22.261Z,29.70
2018-06-21T18:51:50.730Z,29.70
2018-06-21T18:54:19.186Z,29.70
2018-06-21T18:56:47.637Z,29.60
2018-06-21T18:59:16.165Z,29.50
2018-06-21T19:01:44.605Z,29.50
2018-06-21T19:04:13.106Z,29.50
2018-06-21T19:06:46.909Z,29.40
2018-06-21T19:09:20.742Z,29.40
2018-06-21T19:11:54.542Z,29.30
2018-06-21T19:14:23.033Z,29.40
2018-06-21T19:24:15.979Z,29.20
2018-06-21T19:26:44.437Z,29.10
2018-06-21T19:29:12.896Z,29.00
2018-06-21T19:31:41.345Z,28.90
2018-06-21T19:34:09.807Z,28.80
2018-06-21T19:36:38.283Z,28.70
2018-06-21T19:39:09.093Z,28.30
2018-06-21T19:41:38.264Z,28.00
2018-06-21T19:44:07.145Z,27.50
2018-06-21T19:46:35.650Z,27.10
2018-06-21T19:49:04.134Z,26.90
2018-06-21T19:51:32.702Z,26.50
2018-06-21T19:56:29.468Z,26.00
2018-06-21T19:58:57.917Z,25.80
2018-06-21T20:01:26.362Z,25.70
2018-06-21T20:03:54.994Z,25.60
2018-06-21T20:06:23.643Z,25.40
2018-06-21T20:08:52.121Z,25.30
2018-06-21T20:11:25.853Z,25.10
2018-06-21T20:13:54.314Z,25.00
2018-06-21T20:16:22.805Z,24.90
2018-06-21T20:18:51.281Z,24.90
2018-06-21T20:21:20.617Z,24.80
2018-06-21T20:23:50.217Z,24.80
2018-06-21T20:26:19.453Z,24.70
2018-06-21T20:28:47.901Z,24.60
2018-06-21T20:31:17.704Z,24.50
2018-06-21T20:33:47.029Z,24.40
2018-06-21T20:36:16.015Z,24.30
2018-06-21T20:38:44.617Z,24.10
2018-06-21T20:41:13.176Z,24.00
2018-06-21T20:43:41.675Z,23.80
2018-06-21T20:46:10.121Z,23.70
2018-06-21T20:48:38.578Z,23.60
2018-06-21T20:51:07.301Z,23.60
2018-06-21T20:53:35.745Z,23.60
2018-06-21T20:56:04.207Z,23.60
2018-06-21T20:58:32.685Z,23.50
2018-06-21T21:01:01.133Z,23.40
2018-06-21T21:03:29.676Z,23.30
2018-06-21T21:05:58.135Z,23.20
2018-06-21T21:08:26.994Z,23.10
2018-06-21T21:10:55.438Z,23.00
2018-06-21T21:13:23.913Z,22.90
2018-06-21T21:15:52.639Z,22.90
2018-06-21T21:20:49.223Z,22.70
2018-06-21T21:23:17.673Z,22.60
2018-06-21T21:25:46.125Z,22.50
2018-06-21T21:28:14.577Z,22.40
2018-06-21T21:30:43.038Z,22.30
2018-06-21T21:33:11.481Z,22.30
2018-06-21T21:35:39.945Z,22.30
2018-06-21T21:38:08.401Z,22.30
2018-06-21T21:40:36.845Z,22.30
2018-06-21T21:43:05.330Z,22.30
2018-06-21T21:45:33.897Z,22.30
2018-06-21T21:48:02.350Z,22.30
2018-06-21T21:50:30.809Z,22.30
2018-06-21T21:52:59.362Z,22.30
2018-06-21T21:55:27.813Z,22.20
2018-06-21T21:57:56.269Z,22.20
2018-06-21T22:00:43.013Z,22.10
2018-06-21T22:03:11.513Z,22.10
2018-06-21T22:05:39.961Z,22.10
2018-06-21T22:08:08.877Z,22.00
2018-06-21T22:10:37.376Z,21.90
2018-06-21T22:13:06.082Z,21.90
2018-06-21T22:15:34.613Z,21.80
2018-06-21T22:18:03.049Z,21.70
2018-06-21T22:20:31.501Z,21.70
2018-06-21T22:23:00.358Z,21.60
2018-06-21T22:25:29.417Z,21.50
2018-06-21T22:27:59.050Z,21.40
2018-06-21T22:30:28.173Z,21.40
2018-06-21T22:32:56.972Z,21.30
2018-06-21T22:35:25.449Z,21.30
2018-06-21T22:37:53.917Z,21.40
2018-06-21T22:40:22.601Z,21.40
2018-06-21T22:45:19.237Z,21.30
2018-06-21T22:47:47.686Z,21.30
2018-06-21T22:50:16.153Z,21.20
2018-06-21T22:52:44.605Z,21.10
2018-06-21T22:55:13.082Z,21.10
2018-06-21T22:57:41.521Z,20.90
2018-06-21T23:00:09.965Z,20.90
2018-06-21T23:02:38.405Z,20.80
2018-06-21T23:05:06.901Z,20.70
2018-06-21T23:07:35.333Z,20.70
2018-06-21T23:10:03.886Z,20.60
2018-06-21T23:12:32.349Z,20.60
2018-06-21T23:15:00.789Z,20.50
2018-06-21T23:17:29.219Z,20.40
2018-06-21T23:19:57.660Z,20.30
2018-06-21T23:22:26.233Z,20.20
2018-06-21T23:24:54.691Z,20.20
2018-06-21T23:27:23.121Z,20.10
2018-06-21T23:29:51.555Z,20.10
2018-06-21T23:32:20.030Z,20.10
2018-06-21T23:34:48.466Z,20.00
2018-06-21T23:37:16.915Z,20.00
2018-06-21T23:39:45.360Z,19.90
2018-06-21T23:42:13.813Z,19.90
2018-06-21T23:44:42.255Z,19.80
2018-06-21T23:47:10.690Z,19.80
2018-06-21T23:49:39.133Z,19.90
2018-06-21T23:52:07.609Z,19.90
2018-06-21T23:54:36.074Z,20.00
2018-06-21T23:57:04.544Z,20.00
2018-06-21T23:59:32.992Z,20.00
